Arlington Heights, Illinois
Current Conditions -  °F | °C
As of 10:52 PM on Friday 31 Oct 2014 (Local Time) from KPWK Reporting Station
Overcast Overcast  
Wind Chill: 29°   Ceiling: 3800
Heat Index: 37°   Visibility: 10mi
Dew Point: 22°   Wind: 12mph
Humidity: 54%   Direction: 350°N
Pressure: 30.36"   Gusts: 20mph
Location:  42.14°N, 87.99°W
Report Text: KPWK 010352Z AUTO 35010G17KT 10SM OVC038 03/M06 A3036 RMK AO2 SNE31 SLP288 P0001 T00281056
Loading
Personal Weather Stations






























Interactive Weather Map
Tropical Storm Tracking
New forecast layout! Learn more

10-Day Weather Forecast

Advertisements
Track Severe Weather on mobile